Time;durP1;ratioP1;P1;durP2;ratioP2;P2;SDS_P1;SDS_P2;PMS_P1;PMS_P2;Temp;Humidity;BMP_temperature;BMP_pressure;BME280_temperature;BME280_humidity;BME280_pressure;Samples;Min_cycle;Max_cycle;Signal;HPM_P1;HPM_P2
2022/08/15 00:00:23;;;;;;;13.10;8.90;;;;;;;25.60;52.98;99426.58;117233;1182;21857;-70
2022/08/15 00:02:52;;;;;;;15.10;9.50;;;;;;;25.60;53.02;99427.45;117252;1186;23659;-61
2022/08/15 00:05:28;;;;;;;12.20;9.70;;;;;;;25.55;53.27;99429.30;117113;1188;22110;-61
2022/08/15 00:07:55;;;;;;;13.00;9.00;;;;;;;25.53;53.34;99428.20;117810;1186;21867;-70
2022/08/15 00:10:22;;;;;;;11.70;8.80;;;;;;;25.53;53.30;99430.05;117282;1186;22838;-67
2022/08/15 00:13:15;;;;;;;16.00;9.10;;;;;;;25.53;53.40;99431.43;117164;1189;21854;-59
2022/08/15 00:15:42;;;;;;;12.70;9.30;;;;;;;25.52;53.32;99429.91;117258;1182;21857;-59
2022/08/15 00:18:11;;;;;;;13.80;8.60;;;;;;;25.53;53.36;99429.88;117259;1186;21845;-62
2022/08/15 00:20:38;;;;;;;14.40;10.20;;;;;;;25.53;53.41;99426.83;117250;1184;22965;-68
2022/08/15 00:23:18;;;;;;;15.90;9.80;;;;;;;25.52;53.41;99419.87;117184;1186;21928;-59
2022/08/15 00:25:51;;;;;;;12.00;9.00;;;;;;;25.51;53.48;99416.89;117372;1182;22927;-68
2022/08/15 00:28:27;;;;;;;13.90;9.70;;;;;;;25.50;53.47;99419.86;117338;1186;21858;-68
2022/08/15 00:31:05;;;;;;;16.50;10.10;;;;;;;25.48;53.45;99419.34;117260;1186;21960;-59
2022/08/15 00:33:38;;;;;;;11.40;9.50;;;;;;;25.46;53.51;99416.64;117192;1189;21842;-67
2022/08/15 00:36:07;;;;;;;14.50;9.20;;;;;;;25.44;53.44;99422.52;117281;1186;22950;-68
2022/08/15 00:38:54;;;;;;;16.80;9.20;;;;;;;25.42;53.50;99425.28;117212;1188;21866;-59
2022/08/15 00:41:41;;;;;;;13.10;9.90;;;;;;;25.37;53.51;99425.50;117253;1186;22178;-60
2022/08/15 00:44:10;;;;;;;17.50;9.60;;;;;;;25.33;53.52;99418.70;117196;1185;21865;-69
2022/08/15 00:46:47;;;;;;;13.30;9.10;;;;;;;25.31;53.70;99413.43;117240;1186;21860;-60
2022/08/15 00:49:14;;;;;;;12.90;9.50;;;;;;;25.31;53.43;99412.25;117265;1185;23001;-68
2022/08/15 00:51:50;;;;;;;15.50;10.10;;;;;;;25.28;53.62;99409.95;117257;1182;21848;-59
2022/08/15 00:54:42;;;;;;;15.30;9.40;;;;;;;25.23;53.61;99410.02;117178;1186;21860;-59
2022/08/15 00:57:35;;;;;;;14.50;10.00;;;;;;;25.19;53.61;99407.67;117189;1186;21845;-68
2022/08/15 01:00:26;;;;;;;14.20;10.20;;;;;;;25.17;53.70;99408.95;117122;1187;21901;-59
2022/08/15 01:03:02;;;;;;;13.10;9.80;;;;;;;25.16;53.80;99407.45;117258;1186;23000;-68
2022/08/15 01:05:29;;;;;;;13.60;9.60;;;;;;;25.16;53.73;99409.83;117311;1183;22082;-59
2022/08/15 01:07:56;;;;;;;16.20;10.40;;;;;;;25.15;53.79;99399.30;117231;1186;22878;-68
2022/08/15 01:10:24;;;;;;;14.80;10.70;;;;;;;25.15;53.87;99397.32;117141;1188;21934;-60
2022/08/15 01:12:53;;;;;;;12.70;9.50;;;;;;;25.15;53.86;99399.86;117280;1183;21868;-68
2022/08/15 01:15:20;;;;;;;11.60;9.80;;;;;;;25.14;53.82;99401.20;117096;1182;23557;-60
2022/08/15 01:17:55;;;;;;;12.80;9.40;;;;;;;25.13;53.84;99395.70;117266;1183;21867;-68
2022/08/15 01:20:25;;;;;;;14.60;10.00;;;;;;;25.11;53.92;99388.33;117253;1186;22917;-68
2022/08/15 01:23:19;;;;;;;20.20;10.80;;;;;;;25.10;53.83;99383.05;117237;1186;22941;-59
2022/08/15 01:25:59;;;;;;;15.20;10.30;;;;;;;25.08;53.88;99389.65;118810;1183;23453;-69
2022/08/15 01:28:47;;;;;;;10.80;8.80;;;;;;;25.06;53.81;99393.61;117199;1183;23186;-68
2022/08/15 01:31:18;;;;;;;17.20;10.20;;;;;;;25.03;53.79;99397.96;117289;1186;21858;-60
2022/08/15 01:33:47;;;;;;;15.30;10.20;;;;;;;25.00;53.66;99401.83;117173;1186;22929;-59
2022/08/15 01:36:15;;;;;;;13.70;10.20;;;;;;;24.98;53.59;99401.46;117272;1185;21855;-68
2022/08/15 01:39:12;;;;;;;16.70;9.60;;;;;;;24.95;53.71;99397.02;117227;1186;21870;-68
2022/08/15 01:41:52;;;;;;;13.90;10.00;;;;;;;24.92;53.58;99391.64;117189;1186;21865;-60
2022/08/15 01:44:40;;;;;;;15.80;9.60;;;;;;;24.87;53.69;99393.98;117187;1186;21854;-60
2022/08/15 01:47:41;;;;;;;16.20;9.70;;;;;;;24.81;53.67;99390.77;117253;1186;22999;-68
2022/08/15 01:50:15;;;;;;;15.00;9.30;;;;;;;24.74;53.63;99387.39;117249;1186;21857;-68
2022/08/15 01:52:56;;;;;;;13.70;10.10;;;;;;;24.69;53.65;99386.39;117246;1186;22463;-68
2022/08/15 01:56:05;;;;;;;15.80;9.70;;;;;;;24.64;53.76;99386.25;117147;1182;21871;-60
2022/08/15 01:58:52;;;;;;;13.00;10.00;;;;;;;24.57;53.73;99384.86;117246;1186;21864;-67
2022/08/15 02:01:35;;;;;;;;;;;;;;;24.51;53.82;99384.70;117266;1188;21839;-60
2022/08/15 02:04:08;;;;;;;15.50;9.60;;;;;;;24.46;53.69;99385.34;117287;1188;22937;-68
2022/08/15 02:06:52;;;;;;;14.40;9.80;;;;;;;24.41;53.65;99384.90;117248;1183;23460;-68
2022/08/15 02:09:23;;;;;;;12.70;9.90;;;;;;;24.35;53.67;99388.08;117320;1186;21885;-67
2022/08/15 02:12:11;;;;;;;13.40;9.70;;;;;;;24.28;53.82;99388.13;117329;1183;21857;-66
2022/08/15 02:14:59;;;;;;;13.60;9.20;;;;;;;24.22;53.77;99393.64;117217;1180;22932;-60
2022/08/15 02:17:26;;;;;;;13.80;9.70;;;;;;;24.16;53.80;99395.02;117275;1183;21884;-68
2022/08/15 02:19:58;;;;;;;13.30;9.30;;;;;;;24.11;53.85;99397.06;117268;1185;22999;-59
2022/08/15 02:22:26;;;;;;;13.80;9.20;;;;;;;24.07;53.83;99399.91;117387;1183;23452;-59
2022/08/15 02:24:55;;;;;;;11.20;8.90;;;;;;;24.03;53.79;99400.81;117250;1186;21860;-68
2022/08/15 02:27:24;;;;;;;13.20;9.90;;;;;;;24.09;53.67;99395.41;117331;1188;21868;-69
2022/08/15 02:29:52;;;;;;;16.30;9.90;;;;;;;24.17;53.47;99397.27;117308;1186;22677;-68
2022/08/15 02:32:20;;;;;;;13.50;9.70;;;;;;;24.03;53.64;99402.20;117224;1186;23634;-68
2022/08/15 02:34:56;;;;;;;17.90;10.50;;;;;;;23.93;53.88;99397.13;117260;1186;21964;-59
2022/08/15 02:37:24;;;;;;;15.30;10.40;;;;;;;23.88;53.93;99395.87;117250;1182;23020;-68
2022/08/15 02:39:52;;;;;;;16.30;11.60;;;;;;;23.85;54.10;99401.39;117294;1182;21872;-59
2022/08/15 02:42:39;;;;;;;15.10;11.50;;;;;;;23.79;54.06;99411.58;117303;1183;21905;-67
2022/08/15 02:45:13;;;;;;;15.80;11.00;;;;;;;23.75;53.97;99420.11;117257;1184;21839;-59
2022/08/15 02:47:43;;;;;;;18.30;10.80;;;;;;;23.73;54.01;99419.51;117362;1188;22925;-67
2022/08/15 02:50:13;;;;;;;17.30;9.80;;;;;;;23.73;54.00;99414.39;117197;1186;22934;-67
2022/08/15 02:52:43;;;;;;;14.20;10.00;;;;;;;23.69;54.16;99413.02;117278;1185;21853;-59
2022/08/15 02:55:12;;;;;;;14.10;9.70;;;;;;;23.67;54.37;99408.77;117260;1186;23373;-60
2022/08/15 02:57:41;;;;;;;15.50;9.40;;;;;;;23.63;54.24;99405.52;117281;1182;21865;-69
2022/08/15 03:00:27;;;;;;;15.30;9.80;;;;;;;23.58;54.35;99404.67;117286;1183;21861;-68
2022/08/15 03:02:57;;;;;;;12.00;10.30;;;;;;;23.53;54.46;99415.61;117301;1186;22905;-59
2022/08/15 03:05:26;;;;;;;13.10;10.00;;;;;;;23.49;54.44;99423.28;117302;1185;22088;-59
2022/08/15 03:07:54;;;;;;;11.80;9.00;;;;;;;23.47;54.36;99423.95;117354;1185;22943;-60
2022/08/15 03:10:23;;;;;;;15.60;9.60;;;;;;;23.47;54.50;99423.64;117310;1183;21907;-59
2022/08/15 03:12:56;;;;;;;15.20;8.60;;;;;;;23.48;54.76;99416.20;117252;1186;23455;-68
2022/08/15 03:15:37;;;;;;;13.60;10.40;;;;;;;23.48;54.66;99410.85;117306;1183;22940;-68
2022/08/15 03:18:06;;;;;;;17.20;9.30;;;;;;;23.49;54.68;99409.48;117316;1182;21995;-67
2022/08/15 03:20:35;;;;;;;13.70;8.90;;;;;;;23.52;54.79;99405.84;117224;1187;21947;-59
2022/08/15 03:23:04;;;;;;;15.10;9.80;;;;;;;23.54;54.71;99406.59;117307;1182;21858;-67
2022/08/15 03:25:32;;;;;;;13.00;9.60;;;;;;;23.56;54.73;99415.55;117332;1185;22623;-67
2022/08/15 03:28:20;;;;;;;12.50;9.30;;;;;;;23.59;54.80;99419.74;117285;1185;21885;-67
2022/08/15 03:30:55;;;;;;;15.80;9.80;;;;;;;23.64;54.75;99422.08;117290;1185;22544;-68
2022/08/15 03:33:23;;;;;;;13.60;9.90;;;;;;;23.65;54.73;99420.77;117180;1183;24172;-59
2022/08/15 03:36:10;;;;;;;13.20;8.60;;;;;;;23.66;54.86;99419.80;117218;1183;23045;-60
2022/08/15 03:38:37;;;;;;;14.00;9.90;;;;;;;23.66;54.88;99414.73;117357;1185;22540;-60
2022/08/15 03:41:18;;;;;;;14.50;9.10;;;;;;;23.69;54.68;99415.08;117258;1186;23569;-59
2022/08/15 03:43:48;;;;;;;17.60;9.50;;;;;;;23.71;54.71;99412.92;117333;1185;22095;-67
2022/08/15 03:46:17;;;;;;;13.70;9.30;;;;;;;23.74;54.71;99412.80;117267;1186;21856;-60
2022/08/15 03:48:51;;;;;;;15.30;10.50;;;;;;;23.81;54.76;99411.58;117272;1186;21865;-59
2022/08/15 03:51:23;;;;;;;15.50;9.40;;;;;;;23.86;54.80;99406.48;117286;1183;22982;-68
2022/08/15 03:53:55;;;;;;;13.60;9.30;;;;;;;23.89;54.62;99404.41;117304;1182;21967;-60
2022/08/15 03:56:24;;;;;;;16.50;10.30;;;;;;;23.94;54.58;99396.48;117144;1182;23557;-60
2022/08/15 03:58:52;;;;;;;14.30;9.80;;;;;;;23.98;54.60;99392.76;117293;1185;23000;-68
2022/08/15 04:01:21;;;;;;;12.70;9.90;;;;;;;24.02;54.50;99393.87;117710;1182;22970;-60
2022/08/15 04:03:55;;;;;;;14.10;9.70;;;;;;;24.07;54.66;99398.16;117290;1183;21852;-68
2022/08/15 04:06:24;;;;;;;16.10;10.10;;;;;;;24.11;54.66;99398.67;117324;1186;22454;-60
2022/08/15 04:08:54;;;;;;;15.10;9.60;;;;;;;24.15;54.62;99391.39;117222;1186;21857;-68
2022/08/15 04:11:40;;;;;;;17.20;10.20;;;;;;;24.18;54.64;99392.34;117263;1185;21858;-60
2022/08/15 04:14:07;;;;;;;13.80;9.30;;;;;;;24.23;54.46;99389.80;117246;1186;22658;-68
2022/08/15 04:16:57;;;;;;;14.00;10.20;;;;;;;24.28;54.47;99397.41;117236;1186;21858;-68
2022/08/15 04:19:31;;;;;;;14.20;9.60;;;;;;;24.34;54.42;99404.08;117271;1185;21857;-59
2022/08/15 04:22:15;;;;;;;11.80;9.40;;;;;;;24.41;54.55;99407.09;117269;1186;21868;-59
2022/08/15 04:25:11;;;;;;;13.20;9.40;;;;;;;24.49;54.65;99412.15;117217;1183;21857;-59
2022/08/15 04:27:44;;;;;;;14.90;9.70;;;;;;;24.57;54.59;99410.73;117238;1186;24268;-67
2022/08/15 04:30:19;;;;;;;13.50;10.00;;;;;;;24.65;54.55;99403.75;117162;1186;21894;-59
2022/08/15 04:32:46;;;;;;;11.30;9.10;;;;;;;24.74;54.49;99401.25;117296;1185;21858;-68
2022/08/15 04:35:34;;;;;;;15.60;9.50;;;;;;;24.83;54.55;99398.31;117193;1186;23633;-59
2022/08/15 04:38:01;;;;;;;11.40;9.10;;;;;;;24.92;54.29;99398.92;117278;1185;21859;-68
2022/08/15 04:40:28;;;;;;;13.20;10.00;;;;;;;25.00;54.11;99396.96;117208;1187;22899;-59
2022/08/15 04:43:18;;;;;;;18.00;9.90;;;;;;;25.05;54.15;99390.46;117221;1182;22201;-68
2022/08/15 04:45:45;;;;;;;11.40;9.50;;;;;;;25.10;54.06;99393.94;117352;1186;22177;-60
2022/08/15 04:48:14;;;;;;;16.00;9.40;;;;;;;25.18;54.06;99394.36;117278;1185;21884;-68
2022/08/15 04:50:48;;;;;;;12.30;9.20;;;;;;;25.26;54.10;99394.14;117259;1186;21859;-68
2022/08/15 04:53:16;;;;;;;15.60;10.00;;;;;;;25.36;53.95;99393.77;117172;1182;21858;-61
2022/08/15 04:55:51;;;;;;;11.70;9.20;;;;;;;25.46;53.99;99394.78;117260;1184;23471;-60
2022/08/15 04:58:19;;;;;;;15.60;9.90;;;;;;;25.54;53.92;99392.28;117350;1186;22313;-68
2022/08/15 05:01:08;;;;;;;14.30;9.80;;;;;;;25.64;53.87;99387.89;117583;1185;21851;-60
2022/08/15 05:03:37;;;;;;;12.80;9.10;;;;;;;25.73;53.81;99383.73;117259;1183;21857;-60
2022/08/15 05:06:08;;;;;;;156.80;23.50;;;;;;;25.79;53.70;99381.70;117221;1186;21905;-69
2022/08/15 05:08:55;;;;;;;77.10;15.00;;;;;;;25.88;53.77;99379.05;117289;1181;22958;-69
2022/08/15 05:11:22;;;;;;;101.60;16.00;;;;;;;25.98;53.65;99378.17;117315;1184;21864;-60
2022/08/15 05:13:49;;;;;;;88.80;15.30;;;;;;;26.06;53.46;99384.80;117383;1183;22881;-60
2022/08/15 05:16:16;;;;;;;51.10;13.00;;;;;;;26.12;53.55;99383.92;117312;1185;21898;-60
2022/08/15 05:18:43;;;;;;;811.10;90.30;;;;;;;26.17;53.47;99383.11;117347;1183;22966;-69
2022/08/15 05:21:12;;;;;;;30.60;11.60;;;;;;;26.24;53.60;99382.42;117373;1183;22964;-69
2022/08/15 05:23:42;;;;;;;46.80;12.00;;;;;;;26.34;53.51;99379.88;117399;1188;21854;-69
2022/08/15 05:26:10;;;;;;;15.50;10.50;;;;;;;26.44;53.40;99379.17;117318;1186;22990;-68
2022/08/15 05:28:58;;;;;;;16.80;10.40;;;;;;;26.54;53.26;99381.27;117343;1186;23648;-60
2022/08/15 05:31:26;;;;;;;24.20;11.30;;;;;;;26.63;53.08;99384.94;117278;1185;22609;-69
2022/08/15 05:33:59;;;;;;;29.90;10.30;;;;;;;26.73;53.12;99385.05;117357;1186;21885;-68
2022/08/15 05:36:27;;;;;;;26.10;10.30;;;;;;;26.84;52.95;99387.58;117404;1186;23573;-60
2022/08/15 05:39:11;;;;;;;21.90;10.60;;;;;;;26.99;52.98;99385.67;117431;1186;22102;-60
2022/08/15 05:42:05;;;;;;;17.00;11.00;;;;;;;27.14;52.93;99383.77;117400;1182;21845;-69
2022/08/15 05:45:16;;;;;;;20.70;12.20;;;;;;;27.32;52.93;99386.89;117327;1186;22928;-61
2022/08/15 05:48:14;;;;;;;19.70;12.30;;;;;;;27.53;52.92;99394.59;117248;1185;23483;-70
2022/08/15 05:50:49;;;;;;;15.40;9.90;;;;;;;27.73;52.78;99394.76;117309;1182;22155;-61
2022/08/15 05:53:36;;;;;;;22.60;11.80;;;;;;;27.87;52.31;99392.15;117380;1183;23929;-69
2022/08/15 05:56:38;;;;;;;17.90;9.60;;;;;;;28.01;52.41;99392.20;117347;1185;23550;-67
2022/08/15 05:59:12;;;;;;;16.90;10.50;;;;;;;28.14;52.06;99393.95;117389;1183;21838;-60
2022/08/15 06:01:50;;;;;;;15.30;9.90;;;;;;;28.24;51.89;99394.71;117333;1182;21855;-68
2022/08/15 06:04:46;;;;;;;14.60;9.20;;;;;;;28.33;51.63;99394.87;117289;1180;22925;-61
2022/08/15 06:07:14;;;;;;;11.10;8.70;;;;;;;28.39;51.72;99395.19;117362;1183;23572;-69
2022/08/15 06:09:51;;;;;;;12.50;8.90;;;;;;;28.47;51.64;99394.02;117375;1186;23531;-60
2022/08/15 06:12:38;;;;;;;13.00;9.40;;;;;;;28.57;51.52;99396.96;117342;1182;23510;-68
2022/08/15 06:15:25;;;;;;;13.20;9.00;;;;;;;28.69;51.34;99403.30;117290;1182;22972;-69
2022/08/15 06:18:01;;;;;;;16.60;9.70;;;;;;;28.84;51.38;99406.89;117299;1184;23462;-60
2022/08/15 06:20:46;;;;;;;19.50;9.40;;;;;;;28.99;51.37;99404.80;117249;1182;22269;-60
2022/08/15 06:23:33;;;;;;;13.50;9.10;;;;;;;29.15;51.18;99405.61;117454;1186;22985;-69
2022/08/15 06:26:32;;;;;;;12.10;9.30;;;;;;;29.32;51.10;99407.02;117290;1185;22915;-69
2022/08/15 06:29:25;;;;;;;13.30;9.20;;;;;;;29.48;50.69;99407.88;117254;1185;22897;-60
2022/08/15 06:31:58;;;;;;;18.60;9.90;;;;;;;29.63;50.72;99408.96;117268;1183;22819;-67
2022/08/15 06:34:34;;;;;;;15.90;9.40;;;;;;;29.78;50.30;99408.65;117266;1183;23641;-60
2022/08/15 06:37:22;;;;;;;18.10;9.80;;;;;;;29.95;50.15;99408.10;117212;1188;22068;-67
2022/08/15 06:40:46;;;;;;;14.70;8.90;;;;;;;30.14;50.30;99403.20;117328;1184;21860;-60
2022/08/15 06:43:18;;;;;;;16.30;9.80;;;;;;;30.38;49.86;99399.08;116816;1189;21915;-59
2022/08/15 06:45:48;;;;;;;15.20;9.50;;;;;;;30.51;49.11;99395.77;116843;1189;21943;-67
2022/08/15 06:48:18;;;;;;;12.60;9.10;;;;;;;30.62;49.08;99391.15;117077;1184;22925;-59
2022/08/15 06:51:06;;;;;;;15.40;9.50;;;;;;;30.75;48.93;99387.89;117111;1186;21867;-67
2022/08/15 06:53:38;;;;;;;11.10;8.30;;;;;;;30.86;49.04;99390.63;117305;1185;21869;-59
2022/08/15 06:56:29;;;;;;;11.10;8.60;;;;;;;30.98;48.93;99392.94;117160;1183;21858;-59
2022/08/15 06:59:21;;;;;;;14.80;8.80;;;;;;;31.12;48.64;99393.52;117329;1184;22934;-59
2022/08/15 07:02:43;;;;;;;12.00;8.60;;;;;;;31.21;48.36;99389.40;117254;1186;22922;-59
2022/08/15 07:05:17;;;;;;;14.40;8.70;;;;;;;31.25;48.22;99388.19;117221;1188;21858;-59
2022/08/15 07:08:16;;;;;;;11.60;8.70;;;;;;;31.32;47.72;99390.02;117321;1184;21854;-67
2022/08/15 07:11:09;;;;;;;14.20;8.90;;;;;;;31.42;47.77;99389.39;117311;1185;22928;-66
2022/08/15 07:13:49;;;;;;;15.80;9.70;;;;;;;31.52;47.35;99388.72;117313;1185;23528;-66
2022/08/15 07:16:34;;;;;;;11.40;8.40;;;;;;;31.60;47.40;99392.67;117283;1182;24179;-67
2022/08/15 07:19:01;;;;;;;12.30;8.70;;;;;;;31.90;47.13;99397.65;117304;1185;23544;-67
2022/08/15 07:21:29;;;;;;;14.50;9.60;;;;;;;32.07;46.97;99399.39;117048;1186;22908;-62
2022/08/15 07:24:16;;;;;;;11.00;9.10;;;;;;;32.25;46.93;99399.31;117258;1186;21867;-68
2022/08/15 07:27:02;;;;;;;14.30;8.20;;;;;;;32.38;46.74;99404.86;117234;1185;23579;-68
2022/08/15 07:29:37;;;;;;;11.50;8.90;;;;;;;32.52;46.74;99404.62;117231;1185;21856;-62
2022/08/15 07:32:15;;;;;;;13.00;8.80;;;;;;;32.58;46.24;99405.67;117062;1186;21853;-62
2022/08/15 07:35:17;;;;;;;11.60;9.00;;;;;;;32.54;45.84;99414.55;117227;1182;22917;-61
2022/08/15 07:37:47;;;;;;;17.20;9.50;;;;;;;32.51;45.93;99412.73;117172;1180;23557;-61
2022/08/15 07:40:24;;;;;;;17.50;9.70;;;;;;;32.48;46.11;99414.70;117258;1185;21864;-60
2022/08/15 07:42:58;;;;;;;14.80;8.50;;;;;;;32.44;46.18;99417.33;117049;1187;21858;-60
2022/08/15 07:45:31;;;;;;;13.50;9.20;;;;;;;32.50;46.13;99418.28;117311;1186;21874;-60
2022/08/15 07:48:04;;;;;;;11.80;8.80;;;;;;;32.51;46.22;99414.56;117343;1185;22009;-68
2022/08/15 07:50:40;;;;;;;12.50;9.30;;;;;;;32.63;46.00;99410.73;117288;1176;23557;-68
2022/08/15 07:53:16;;;;;;;14.40;9.00;;;;;;;32.67;45.86;99409.35;117209;1182;22114;-61
2022/08/15 07:56:04;;;;;;;13.50;8.90;;;;;;;32.64;45.61;99408.40;117286;1185;22957;-61
2022/08/15 07:59:15;;;;;;;17.50;9.70;;;;;;;32.62;45.96;99414.67;117289;1182;21866;-60
2022/08/15 08:02:04;;;;;;;12.40;8.70;;;;;;;32.76;46.20;99418.47;117522;1185;22925;-61
2022/08/15 08:04:34;;;;;;;12.20;8.90;;;;;;;32.96;45.78;99417.71;117299;1186;21881;-61
2022/08/15 08:07:22;;;;;;;11.90;8.90;;;;;;;33.11;45.79;99420.01;117286;1185;21870;-68
2022/08/15 08:10:09;;;;;;;13.90;8.70;;;;;;;33.32;45.50;99419.78;117140;1189;21869;-61
2022/08/15 08:13:01;;;;;;;18.90;9.70;;;;;;;33.60;45.26;99423.94;117059;1187;21866;-68
2022/08/15 08:16:20;;;;;;;11.40;8.60;;;;;;;33.76;45.22;99420.71;117273;1180;22623;-68
2022/08/15 08:19:09;;;;;;;16.90;9.30;;;;;;;33.82;44.21;99414.89;117249;1186;21861;-68
2022/08/15 08:21:43;;;;;;;13.80;9.30;;;;;;;33.87;44.14;99419.56;117310;1182;22850;-60
2022/08/15 08:24:51;;;;;;;13.50;9.40;;;;;;;33.86;43.51;99421.05;117092;1186;21856;-68
2022/08/15 08:27:21;;;;;;;17.20;8.90;;;;;;;33.87;44.29;99422.24;117226;1182;22614;-60
2022/08/15 08:30:08;;;;;;;13.00;8.60;;;;;;;33.96;44.26;99427.52;117098;1182;22544;-60
2022/08/15 08:33:14;;;;;;;13.70;8.40;;;;;;;34.01;43.12;99432.53;117162;1189;21863;-68
2022/08/15 08:36:03;;;;;;;10.30;8.90;;;;;;;33.94;43.18;99428.86;117036;1187;23632;-68
2022/08/15 08:38:59;;;;;;;12.20;8.00;;;;;;;33.91;43.11;99423.65;117089;1182;21873;-60
2022/08/15 08:41:40;;;;;;;13.10;8.10;;;;;;;34.08;43.87;99422.18;117270;1186;23462;-61
2022/08/15 08:44:43;;;;;;;13.50;8.50;;;;;;;34.43;43.17;99418.11;117276;1183;23470;-60
2022/08/15 08:47:51;;;;;;;13.90;9.50;;;;;;;34.72;42.29;99414.95;117107;1188;23464;-67
2022/08/15 08:50:28;;;;;;;12.60;8.70;;;;;;;34.74;42.39;99412.52;117288;1182;21953;-67
2022/08/15 08:53:20;;;;;;;14.70;9.00;;;;;;;34.87;42.54;99413.20;117295;1182;21859;-67
2022/08/15 08:56:19;;;;;;;15.40;9.60;;;;;;;35.08;42.82;99417.78;117068;1186;21883;-67
2022/08/15 08:59:05;;;;;;;12.20;8.40;;;;;;;35.32;42.60;99413.55;117288;1186;22074;-60
2022/08/15 09:01:36;;;;;;;12.30;8.40;;;;;;;35.47;42.53;99414.38;117114;1185;22652;-67
2022/08/15 09:04:12;;;;;;;13.20;8.50;;;;;;;35.54;41.73;99414.73;117024;1187;22621;-62
2022/08/15 09:06:46;;;;;;;12.30;8.50;;;;;;;35.50;40.96;99410.11;117060;1188;23478;-62
2022/08/15 09:09:28;;;;;;;15.70;8.40;;;;;;;35.49;41.24;99401.65;117004;1188;21861;-62
2022/08/15 09:14:58;;;;;;;12.90;9.00;;;;;;;35.73;41.78;99390.42;117083;1183;23574;-62
2022/08/15 09:17:33;;;;;;;13.40;8.60;;;;;;;35.89;41.25;99391.14;117262;1185;21858;-62
2022/08/15 09:20:08;;;;;;;15.50;8.50;;;;;;;35.92;41.44;99388.59;117365;1185;21862;-62
2022/08/15 09:22:46;;;;;;;14.10;8.30;;;;;;;36.03;41.48;99389.62;117157;1184;21858;-62
2022/08/15 09:25:14;;;;;;;12.40;8.90;;;;;;;36.20;40.58;99389.45;117307;1185;23648;-62
2022/08/15 09:27:49;;;;;;;11.90;8.70;;;;;;;36.17;40.01;99390.05;117192;1185;23565;-70
2022/08/15 09:30:22;;;;;;;13.10;8.50;;;;;;;36.05;39.93;99396.07;117174;1186;22154;-62
2022/08/15 09:33:28;;;;;;;15.20;8.90;;;;;;;36.03;40.80;99403.82;117046;1188;23595;-61
2022/08/15 09:36:20;;;;;;;13.20;8.60;;;;;;;36.20;41.04;99406.27;117252;1185;21974;-62
2022/08/15 09:39:02;;;;;;;13.40;9.00;;;;;;;36.31;40.43;99410.89;117267;1185;21916;-69
2022/08/15 09:41:40;;;;;;;13.70;8.90;;;;;;;36.41;40.10;99418.53;117327;1182;23474;-69
2022/08/15 09:44:49;;;;;;;15.50;8.70;;;;;;;36.57;40.16;99414.86;117230;1186;22647;-63
2022/08/15 09:47:48;;;;;;;15.00;9.40;;;;;;;36.69;39.94;99415.64;117304;1185;23526;-69
2022/08/15 09:50:34;;;;;;;19.40;9.30;;;;;;;36.83;39.56;99416.99;117305;1180;22944;-69
2022/08/15 09:53:18;;;;;;;15.70;8.70;;;;;;;36.94;39.19;99419.81;117307;1183;24162;-61
2022/08/15 09:55:47;;;;;;;11.30;8.30;;;;;;;37.12;39.54;99421.76;117277;1185;21911;-61
2022/08/15 09:58:25;;;;;;;13.40;7.90;;;;;;;37.34;39.45;99414.81;117297;1183;22164;-61
2022/08/15 10:01:15;;;;;;;11.00;7.80;;;;;;;37.39;37.91;99415.42;117338;1185;23633;-61
2022/08/15 10:03:44;;;;;;;;;;;;;;;37.13;36.81;99412.66;117449;1185;22938;-68
2022/08/15 10:06:37;;;;;;;15.20;8.00;;;;;;;36.99;37.88;99413.48;117362;1184;23475;-68
2022/08/15 10:09:24;;;;;;;12.20;7.90;;;;;;;37.00;37.81;99418.26;117317;1186;23611;-68
2022/08/15 10:12:00;;;;;;;11.80;7.80;;;;;;;36.99;37.82;99418.58;117251;1186;23062;-62
2022/08/15 10:14:42;;;;;;;13.60;8.10;;;;;;;36.88;37.77;99413.11;117331;1185;21909;-69
2022/08/15 10:17:35;;;;;;;17.90;8.80;;;;;;;36.83;37.28;99417.38;117252;1186;23583;-69
2022/08/15 10:20:26;;;;;;;14.60;8.50;;;;;;;36.73;36.37;99422.33;117277;1184;23477;-63
2022/08/15 10:23:00;;;;;;;9.60;6.60;;;;;;;36.61;36.33;99427.09;117142;1186;23548;-63
2022/08/15 10:25:36;;;;;;;18.00;8.20;;;;;;;36.52;35.60;99432.02;117260;1182;21974;-63
2022/08/15 10:28:12;;;;;;;12.80;8.20;;;;;;;36.42;36.15;99433.48;117266;1185;21857;-70
2022/08/15 10:31:04;;;;;;;12.60;8.50;;;;;;;36.36;36.43;99433.40;117216;1186;23566;-70
2022/08/15 10:33:33;;;;;;;12.80;9.30;;;;;;;36.30;37.00;99437.48;117333;1185;21851;-69
2022/08/15 10:36:23;;;;;;;15.10;9.30;;;;;;;36.30;35.58;99440.44;117157;1186;21862;-63
2022/08/15 10:39:20;;;;;;;11.80;8.20;;;;;;;36.17;35.76;99435.08;117209;1186;21863;-69
2022/08/15 10:42:32;;;;;;;12.50;8.20;;;;;;;36.05;36.69;99437.60;117181;1186;21939;-61
2022/08/15 10:45:10;;;;;;;11.20;7.70;;;;;;;35.95;36.76;99437.90;116844;1188;23547;-62
2022/08/15 10:48:08;;;;;;;11.70;8.20;;;;;;;35.87;37.06;99438.61;117082;1186;21861;-69
2022/08/15 10:51:09;;;;;;;14.10;8.40;;;;;;;35.71;37.23;99434.11;117036;1186;21874;-63
2022/08/15 10:53:54;;;;;;;12.20;8.80;;;;;;;35.68;37.27;99428.38;117083;1183;21870;-63
2022/08/15 10:56:30;;;;;;;14.20;8.70;;;;;;;35.66;36.95;99425.89;117311;1185;21890;-63
2022/08/15 10:59:19;;;;;;;13.20;8.60;;;;;;;35.68;36.52;99429.09;117264;1182;22874;-70
2022/08/15 11:01:51;;;;;;;14.60;9.90;;;;;;;35.72;36.97;99430.73;117261;1182;23571;-62
2022/08/15 11:04:37;;;;;;;14.60;8.50;;;;;;;35.75;36.87;99431.55;117088;1182;22929;-64
2022/08/15 11:07:27;;;;;;;13.00;8.70;;;;;;;35.85;37.39;99434.64;116964;1187;22650;-62
2022/08/15 11:09:58;;;;;;;15.60;9.40;;;;;;;36.09;37.66;99430.74;117261;1184;21862;-62
2022/08/15 11:12:31;;;;;;;12.10;8.00;;;;;;;36.31;37.81;99431.25;117289;1185;21849;-62
2022/08/15 11:15:04;;;;;;;16.10;8.90;;;;;;;36.49;37.44;99430.25;117163;1185;21879;-63
2022/08/15 11:18:08;;;;;;;13.40;8.60;;;;;;;36.53;35.98;99428.10;117203;1184;21864;-63
2022/08/15 11:20:52;;;;;;;10.80;8.00;;;;;;;36.54;36.93;99424.23;117072;1182;22645;-63
2022/08/15 11:23:36;;;;;;;9.70;7.30;;;;;;;36.67;36.96;99424.88;117319;1185;21858;-64
2022/08/15 11:26:04;;;;;;;15.60;9.20;;;;;;;36.73;36.96;99426.92;117317;1186;21860;-64
2022/08/15 11:29:15;;;;;;;13.80;8.50;;;;;;;36.79;36.51;99423.96;117284;1186;23031;-62
2022/08/15 11:31:46;;;;;;;17.20;9.30;;;;;;;36.72;35.28;99422.85;117137;1186;21866;-63
2022/08/15 11:34:32;;;;;;;17.40;9.80;;;;;;;36.41;35.38;99424.55;117316;1186;22941;-64
2022/08/15 11:37:18;;;;;;;12.10;8.60;;;;;;;36.06;36.08;99421.29;117347;1183;22879;-63
2022/08/15 11:39:54;;;;;;;11.60;9.00;;;;;;;35.88;36.08;99426.19;117422;1186;24159;-63
2022/08/15 11:42:23;;;;;;;9.60;8.60;;;;;;;35.72;36.58;99428.81;117263;1182;21867;-71
2022/08/15 11:45:28;;;;;;;15.20;8.90;;;;;;;35.62;35.87;99431.02;117216;1186;21858;-70
2022/08/15 11:48:31;;;;;;;11.60;9.10;;;;;;;35.41;36.49;99432.39;116735;1186;22631;-71
2022/08/15 11:51:15;;;;;;;14.70;8.90;;;;;;;35.33;36.72;99430.57;117152;1187;21862;-64
2022/08/15 11:54:04;;;;;;;13.60;8.70;;;;;;;35.33;36.63;99429.88;117341;1186;23579;-63
2022/08/15 11:57:03;;;;;;;11.40;8.90;;;;;;;35.31;36.74;99426.47;117348;1186;23452;-71
2022/08/15 11:59:58;;;;;;;12.80;8.50;;;;;;;35.39;36.74;99423.75;117258;1185;21858;-72
2022/08/15 12:02:30;;;;;;;17.20;9.90;;;;;;;35.50;37.16;99419.57;117303;1183;22948;-64
2022/08/15 12:05:31;;;;;;;12.80;8.80;;;;;;;35.51;37.06;99416.73;117299;1182;22625;-70
2022/08/15 12:08:32;;;;;;;15.50;8.40;;;;;;;35.53;36.89;99416.61;117326;1185;23712;-71
2022/08/15 12:11:06;;;;;;;15.10;9.10;;;;;;;35.50;36.54;99416.88;117339;1186;21869;-71
2022/08/15 12:13:34;;;;;;;11.70;8.50;;;;;;;35.48;36.63;99415.90;117519;1185;21867;-64
2022/08/15 12:16:02;;;;;;;11.10;8.20;;;;;;;35.49;36.97;99423.54;117342;1182;21872;-71
2022/08/15 12:18:50;;;;;;;12.60;9.20;;;;;;;35.54;36.78;99425.14;117025;1184;23459;-71